createdAt,value
2018-01-04T00:01:51.421Z,9.15
2018-01-04T00:04:20.436Z,8.75
2018-01-04T00:06:50.225Z,9.20
2018-01-04T00:09:19.268Z,11.12
2018-01-04T00:11:48.667Z,12.60
2018-01-04T00:14:17.769Z,12.07
2018-01-04T00:16:46.711Z,12.30
2018-01-04T00:19:15.711Z,7.72
2018-01-04T00:21:48.737Z,12.37
2018-01-04T00:24:17.962Z,11.40
2018-01-04T00:26:47.036Z,12.45
2018-01-04T00:29:16.385Z,13.38
2018-01-04T00:31:46.300Z,19.45
2018-01-04T00:34:15.386Z,10.77
2018-01-04T00:36:44.572Z,10.80
2018-01-04T00:39:14.567Z,9.00
2018-01-04T00:41:43.661Z,13.30
2018-01-04T00:44:12.688Z,9.98
2018-01-04T00:46:42.009Z,10.82
2018-01-04T00:49:11.280Z,7.68
2018-01-04T00:51:45.374Z,6.25
2018-01-04T00:54:14.382Z,6.60
2018-01-04T00:56:43.404Z,9.57
2018-01-04T00:59:12.368Z,6.30
2018-01-04T01:01:41.342Z,15.07
2018-01-04T01:04:10.307Z,11.88
2018-01-04T01:06:40.149Z,17.30
2018-01-04T01:09:09.162Z,13.40
2018-01-04T01:11:38.232Z,13.80
2018-01-04T01:14:07.224Z,13.13
2018-01-04T01:16:36.152Z,9.23
2018-01-04T01:19:05.096Z,13.35
2018-01-04T01:21:34.854Z,14.13
2018-01-04T01:24:03.899Z,10.70
2018-01-04T01:26:32.928Z,13.10
2018-01-04T01:29:01.988Z,15.80
2018-01-04T01:31:30.954Z,9.23
2018-01-04T01:35:20.019Z,16.45
2018-01-04T01:37:49.161Z,19.50
2018-01-04T01:40:18.885Z,18.92
2018-01-04T01:42:47.845Z,14.73
2018-01-04T01:45:17.582Z,13.93
2018-01-04T01:47:46.748Z,16.45
2018-01-04T01:50:25.383Z,16.37
2018-01-04T01:52:54.460Z,18.87
2018-01-04T01:55:23.570Z,17.75
2018-01-04T01:57:52.647Z,14.98
2018-01-04T02:00:22.420Z,24.80
2018-01-04T02:02:51.439Z,19.48
2018-01-04T02:05:21.012Z,20.62
2018-01-04T02:07:49.992Z,21.40
2018-01-04T02:10:19.048Z,22.67
2018-01-04T02:12:48.836Z,20.00
2018-01-04T02:15:17.833Z,29.67
2018-01-04T02:17:48.074Z,16.60
2018-01-04T02:23:00.274Z,24.48
2018-01-04T02:26:02.501Z,21.77
2018-01-04T02:29:02.540Z,20.73
2018-01-04T02:31:42.515Z,27.27
2018-01-04T02:34:29.288Z,23.08
2018-01-04T02:39:10.084Z,21.60
2018-01-04T02:41:48.660Z,19.20
2018-01-04T02:44:26.441Z,17.87
2018-01-04T02:46:55.775Z,18.87
2018-01-04T02:49:25.061Z,24.87
2018-01-04T02:51:54.037Z,21.83
2018-01-04T02:54:23.077Z,22.45
2018-01-04T02:56:52.088Z,16.05
2018-01-04T02:59:21.061Z,22.67
2018-01-04T03:01:50.201Z,17.98
2018-01-04T03:04:20.240Z,17.70
2018-01-04T03:06:49.219Z,27.42
2018-01-04T03:09:19.160Z,18.25
2018-01-04T03:11:48.429Z,22.50
2018-01-04T03:14:18.360Z,19.27
2018-01-04T03:16:47.461Z,24.35
2018-01-04T03:19:16.418Z,19.42
2018-01-04T03:21:50.292Z,24.52
2018-01-04T03:24:23.404Z,20.27
2018-01-04T03:29:03.458Z,23.30
2018-01-04T03:31:36.741Z,26.05
2018-01-04T03:36:11.903Z,20.75
2018-01-04T03:39:47.877Z,19.35
2018-01-04T03:44:22.865Z,23.12
2018-01-04T03:48:58.039Z,21.45
2018-01-04T03:52:33.071Z,16.62
2018-01-04T03:55:06.163Z,22.17
2018-01-04T03:58:07.836Z,19.33
2018-01-04T04:00:40.924Z,24.55
2018-01-04T04:03:09.884Z,24.12
2018-01-04T04:05:43.157Z,25.12
2018-01-04T04:08:17.044Z,27.98
2018-01-04T04:10:46.140Z,21.25
2018-01-04T04:13:15.157Z,18.40
2018-01-04T04:15:44.849Z,27.65
2018-01-04T04:18:13.810Z,24.08
2018-01-04T04:20:42.780Z,22.30
2018-01-04T04:23:11.732Z,17.70
2018-01-04T04:25:41.430Z,21.10
2018-01-04T04:28:11.733Z,18.83
2018-01-04T04:30:40.720Z,32.92
2018-01-04T04:33:09.696Z,29.42
2018-01-04T04:35:39.293Z,26.87
2018-01-04T04:38:08.431Z,26.48
2018-01-04T04:40:37.425Z,21.05
2018-01-04T04:43:06.413Z,28.25
2018-01-04T04:45:35.399Z,19.55
2018-01-04T04:48:04.423Z,18.25
2018-01-04T04:50:33.456Z,25.62
2018-01-04T04:53:03.204Z,24.98
2018-01-04T04:55:32.173Z,18.80
2018-01-04T04:58:01.972Z,16.58
2018-01-04T05:00:31.540Z,24.60
2018-01-04T05:03:00.539Z,22.33
2018-01-04T05:05:30.470Z,20.52
2018-01-04T05:07:59.511Z,22.60
2018-01-04T05:10:28.667Z,21.50
2018-01-04T05:12:58.675Z,22.17
2018-01-04T05:15:28.447Z,30.85
2018-01-04T05:17:57.508Z,22.15
2018-01-04T05:20:26.464Z,26.60
2018-01-04T05:22:56.396Z,21.83
2018-01-04T05:25:26.544Z,19.60
2018-01-04T05:27:55.702Z,24.80
2018-01-04T05:30:25.203Z,19.90
2018-01-04T05:32:54.907Z,22.48
2018-01-04T05:35:24.615Z,17.55
2018-01-04T05:37:54.938Z,19.02
2018-01-04T05:40:24.836Z,18.23
2018-01-04T05:42:54.368Z,17.33
2018-01-04T05:45:24.100Z,20.30
2018-01-04T05:47:53.800Z,21.42
2018-01-04T05:50:22.740Z,21.27
2018-01-04T05:52:51.690Z,21.35
2018-01-04T05:55:20.627Z,17.83
2018-01-04T05:57:49.609Z,15.68
2018-01-04T06:00:18.944Z,17.62
2018-01-04T06:02:48.899Z,19.87
2018-01-04T06:05:18.325Z,23.00
2018-01-04T06:07:47.561Z,15.70
2018-01-04T06:10:17.350Z,18.90
2018-01-04T06:12:46.361Z,22.80
2018-01-04T06:15:18.494Z,18.73
2018-01-04T06:17:47.508Z,20.52
2018-01-04T06:20:19.209Z,22.52
2018-01-04T06:22:48.500Z,18.77
2018-01-04T06:25:17.440Z,22.90
2018-01-04T06:27:46.410Z,18.50
2018-01-04T06:30:15.492Z,16.40
2018-01-04T06:32:44.558Z,20.70
2018-01-04T06:35:18.445Z,34.90
2018-01-04T06:37:47.672Z,21.37
2018-01-04T06:40:17.930Z,17.45
2018-01-04T06:42:46.901Z,21.62
2018-01-04T06:45:20.301Z,21.42
2018-01-04T06:47:49.343Z,18.27
2018-01-04T06:50:18.597Z,18.73
2018-01-04T06:52:47.836Z,28.33
2018-01-04T06:55:17.337Z,25.55
2018-01-04T06:57:46.402Z,19.77
2018-01-04T07:00:20.393Z,24.83
2018-01-04T07:02:49.414Z,21.12
2018-01-04T07:05:18.428Z,22.05
2018-01-04T07:07:52.600Z,22.98
2018-01-04T07:10:52.129Z,16.87
2018-01-04T07:13:21.118Z,18.65
2018-01-04T07:15:50.132Z,14.98
2018-01-04T07:18:20.068Z,17.90
2018-01-04T07:20:49.127Z,17.60
2018-01-04T07:23:18.157Z,25.75
2018-01-04T07:25:47.145Z,26.73
2018-01-04T07:28:16.201Z,26.95
2018-01-04T07:30:50.402Z,21.27
2018-01-04T07:33:20.178Z,23.20
2018-01-04T07:35:49.944Z,21.27
2018-01-04T07:38:19.194Z,24.17
2018-01-04T07:40:49.280Z,25.80
2018-01-04T07:43:18.340Z,25.85
2018-01-04T07:45:48.276Z,24.27
2018-01-04T07:48:17.282Z,17.05
2018-01-04T07:50:47.160Z,15.30
2018-01-04T07:53:16.548Z,20.40
2018-01-04T07:55:45.536Z,16.33
2018-01-04T07:58:15.301Z,14.70
2018-01-04T08:00:44.289Z,13.95
2018-01-04T08:03:14.071Z,19.98
2018-01-04T08:05:43.031Z,11.68
2018-01-04T08:08:12.726Z,13.00
2018-01-04T08:10:41.712Z,16.42
2018-01-04T08:13:10.746Z,18.73
2018-01-04T08:15:39.801Z,11.57
2018-01-04T08:18:08.804Z,24.37
2018-01-04T08:20:38.760Z,8.77
2018-01-04T08:23:07.765Z,12.88
2018-01-04T08:25:36.788Z,19.58
2018-01-04T08:28:07.575Z,10.98
2018-01-04T08:30:37.479Z,18.30
2018-01-04T08:33:06.481Z,12.48
2018-01-04T08:35:35.455Z,15.32
2018-01-04T08:38:04.668Z,10.85
2018-01-04T08:40:34.450Z,25.37
2018-01-04T08:43:03.482Z,16.15
2018-01-04T08:45:32.684Z,14.70
2018-01-04T08:48:01.656Z,16.87
2018-01-04T08:50:30.759Z,13.73
2018-01-04T08:52:59.982Z,15.13
2018-01-04T08:58:04.613Z,15.85
2018-01-04T09:00:34.473Z,17.55
2018-01-04T09:03:03.627Z,18.77
2018-01-04T09:05:32.681Z,26.80
2018-01-04T09:08:02.446Z,23.23
2018-01-04T09:10:32.193Z,22.77
2018-01-04T09:13:01.316Z,20.50
2018-01-04T09:15:31.923Z,19.12
2018-01-04T09:18:01.027Z,18.10
2018-01-04T09:20:31.067Z,25.62
2018-01-04T09:23:00.189Z,21.02
2018-01-04T09:25:29.802Z,22.25
2018-01-04T09:28:04.054Z,17.75
2018-01-04T09:30:33.953Z,21.83
2018-01-04T09:33:04.726Z,24.50
2018-01-04T09:35:35.343Z,17.15
2018-01-04T09:38:05.147Z,24.90
2018-01-04T09:40:34.974Z,15.52
2018-01-04T09:43:04.786Z,28.30
2018-01-04T09:45:34.725Z,23.12
2018-01-04T09:48:04.510Z,25.52
2018-01-04T09:50:34.316Z,19.37
2018-01-04T09:53:04.120Z,23.73
2018-01-04T09:55:33.970Z,25.08
2018-01-04T09:58:04.052Z,17.20
2018-01-04T10:00:33.862Z,20.40
2018-01-04T10:03:03.727Z,28.62
2018-01-04T10:06:03.234Z,22.42
2018-01-04T10:08:33.819Z,16.30
2018-01-04T10:11:03.819Z,16.05
2018-01-04T10:13:32.897Z,17.83
2018-01-04T10:16:02.165Z,24.05
2018-01-04T10:18:32.012Z,22.87
2018-01-04T10:21:01.194Z,20.80
2018-01-04T10:23:35.878Z,23.00
2018-01-04T10:26:05.607Z,23.17
2018-01-04T10:28:34.615Z,18.95
2018-01-04T10:31:04.461Z,11.65
2018-01-04T10:33:36.644Z,16.83
2018-01-04T10:36:05.777Z,18.92
2018-01-04T10:38:34.912Z,15.65
2018-01-04T10:41:04.889Z,11.95
2018-01-04T10:43:34.899Z,18.58
2018-01-04T10:46:04.121Z,22.20
2018-01-04T10:48:34.074Z,21.30
2018-01-04T10:51:04.564Z,17.85
2018-01-04T10:53:33.816Z,18.58
2018-01-04T10:56:03.764Z,17.12
2018-01-04T10:58:32.793Z,18.83
2018-01-04T11:01:01.921Z,16.60
2018-01-04T11:03:31.924Z,18.87
2018-01-04T11:06:01.119Z,24.58
2018-01-04T11:08:30.135Z,19.92
2018-01-04T11:10:59.969Z,29.05
2018-01-04T11:13:29.622Z,17.98
2018-01-04T11:15:58.893Z,21.40
2018-01-04T11:18:29.150Z,30.88
2018-01-04T11:20:58.164Z,25.08
2018-01-04T11:23:27.904Z,17.10
2018-01-04T11:25:57.654Z,19.70
2018-01-04T11:28:26.681Z,34.97
2018-01-04T11:30:56.440Z,18.25
2018-01-04T11:33:25.499Z,25.00
2018-01-04T11:35:55.275Z,14.55
2018-01-04T11:38:25.090Z,18.92
2018-01-04T11:40:54.155Z,20.00
2018-01-04T11:43:24.118Z,23.27
2018-01-04T11:45:54.076Z,26.37
2018-01-04T11:48:24.876Z,16.10
2018-01-04T11:50:54.741Z,22.62
2018-01-04T11:53:23.771Z,20.85
2018-01-04T11:55:52.881Z,22.62
2018-01-04T11:58:22.741Z,20.15
2018-01-04T12:00:51.736Z,14.77
2018-01-04T12:03:21.616Z,22.13
2018-01-04T12:05:50.620Z,27.40
2018-01-04T12:08:19.660Z,32.50
2018-01-04T12:10:48.679Z,22.60
2018-01-04T12:13:18.475Z,25.35
2018-01-04T12:15:47.490Z,22.42
2018-01-04T12:18:17.358Z,28.30
2018-01-04T12:20:47.136Z,26.00
2018-01-04T12:23:16.153Z,20.75
2018-01-04T12:25:45.148Z,22.58
2018-01-04T12:28:14.890Z,28.52
2018-01-04T12:30:44.008Z,24.45
2018-01-04T12:33:13.862Z,22.30
2018-01-04T12:35:49.569Z,19.58
2018-01-04T12:38:18.711Z,19.70
2018-01-04T12:40:48.540Z,28.08
2018-01-04T12:43:17.670Z,17.83
2018-01-04T12:45:47.484Z,18.23
2018-01-04T12:48:17.110Z,18.55
2018-01-04T12:50:46.241Z,20.83
2018-01-04T12:53:15.455Z,13.00
2018-01-04T12:55:44.658Z,18.95
2018-01-04T12:58:14.061Z,20.27
2018-01-04T13:00:43.267Z,11.18
2018-01-04T13:03:13.221Z,10.13
2018-01-04T13:05:42.310Z,9.80
2018-01-04T13:08:11.645Z,17.92
2018-01-04T13:10:41.462Z,13.98
2018-01-04T13:13:10.864Z,13.15
2018-01-04T13:15:39.895Z,8.10
2018-01-04T13:18:09.788Z,12.00
2018-01-04T13:20:38.806Z,9.80
2018-01-04T13:23:08.703Z,8.68
2018-01-04T13:25:37.724Z,9.82
2018-01-04T13:28:10.190Z,9.45
2018-01-04T13:30:39.236Z,6.55
2018-01-04T13:33:08.289Z,10.90
2018-01-04T13:35:37.383Z,9.38
2018-01-04T13:38:06.384Z,7.97
2018-01-04T13:40:35.446Z,8.82
2018-01-04T13:43:04.450Z,3.72
2018-01-04T13:45:34.229Z,9.05
2018-01-04T13:48:03.384Z,10.13
2018-01-04T13:50:33.199Z,9.73
2018-01-04T13:53:02.242Z,9.40
2018-01-04T13:55:31.305Z,6.65
2018-01-04T13:58:00.636Z,6.45
2018-01-04T14:00:29.697Z,9.13
2018-01-04T14:02:58.708Z,12.13
2018-01-04T14:05:39.902Z,6.53
2018-01-04T14:08:09.726Z,10.60
2018-01-04T14:10:38.990Z,5.60
2018-01-04T14:13:08.100Z,5.75
2018-01-04T14:15:37.901Z,6.28
2018-01-04T14:18:07.011Z,5.53
2018-01-04T14:20:36.107Z,5.20
2018-01-04T14:23:06.180Z,5.05
2018-01-04T14:25:37.174Z,5.00
2018-01-04T14:28:09.734Z,5.03
2018-01-04T14:30:39.214Z,3.30
2018-01-04T14:33:09.131Z,5.32
2018-01-04T14:35:38.231Z,6.85
2018-01-04T14:38:07.355Z,4.72
2018-01-04T14:40:37.900Z,4.70
2018-01-04T14:43:08.044Z,4.70
2018-01-04T14:45:37.306Z,7.87
2018-01-04T14:48:06.437Z,3.55
2018-01-04T14:50:35.621Z,8.48
2018-01-04T14:53:06.130Z,4.70
2018-01-04T14:55:35.435Z,3.30
2018-01-04T14:58:04.724Z,3.42
2018-01-04T15:00:33.925Z,2.80
2018-01-04T15:46:46.101Z,8.18
2018-01-04T15:49:15.382Z,6.57
2018-01-04T15:51:44.810Z,6.68
2018-01-04T15:54:15.013Z,5.78
2018-01-04T15:56:44.300Z,5.62
2018-01-04T15:59:13.507Z,3.70
2018-01-04T16:04:17.109Z,2.85
2018-01-04T16:06:46.230Z,2.05
2018-01-04T16:09:15.380Z,3.25
2018-01-04T16:11:45.240Z,2.25
2018-01-04T16:14:14.432Z,3.80
2018-01-04T16:16:43.601Z,3.83
2018-01-04T16:19:13.592Z,1.77
2018-01-04T16:21:47.052Z,2.65
2018-01-04T16:24:16.124Z,2.20
2018-01-04T16:26:45.191Z,2.25
2018-01-04T16:29:15.016Z,2.78
2018-01-04T16:31:44.078Z,2.00
2018-01-04T16:34:13.902Z,2.45
2018-01-04T16:36:43.717Z,1.50
2018-01-04T16:39:12.907Z,1.75
2018-01-04T16:41:42.767Z,1.60
2018-01-04T16:44:11.891Z,1.95
2018-01-04T16:46:41.028Z,1.45
2018-01-04T16:49:10.810Z,1.50
2018-01-04T16:51:39.782Z,1.70
2018-01-04T16:54:09.161Z,3.62
2018-01-04T16:56:38.243Z,1.98
2018-01-04T16:59:07.264Z,4.32
2018-01-04T17:01:36.638Z,2.72
2018-01-04T17:04:05.786Z,3.45
2018-01-04T17:06:36.819Z,3.08
2018-01-04T17:09:06.715Z,2.67
2018-01-04T17:11:36.632Z,2.85
2018-01-04T17:14:05.761Z,3.83
2018-01-04T17:16:36.250Z,3.20
2018-01-04T17:19:05.374Z,3.00
2018-01-04T17:21:34.450Z,3.90
2018-01-04T17:24:03.579Z,3.42
2018-01-04T17:26:33.535Z,4.47
2018-01-04T17:29:03.656Z,3.40
2018-01-04T17:31:32.748Z,3.78
2018-01-04T17:34:01.858Z,3.50
2018-01-04T17:36:30.949Z,3.62
2018-01-04T17:39:00.526Z,3.37
2018-01-04T17:41:29.602Z,5.40
2018-01-04T17:43:59.012Z,3.53
2018-01-04T17:46:33.801Z,4.35
2018-01-04T17:49:02.965Z,5.05
2018-01-04T17:51:37.375Z,4.50
2018-01-04T17:54:06.452Z,4.87
2018-01-04T17:56:36.594Z,5.20
2018-01-04T17:59:05.608Z,6.22
2018-01-04T18:01:34.842Z,6.47
2018-01-04T18:04:03.944Z,7.10
2018-01-04T18:06:33.767Z,9.00
2018-01-04T18:09:05.801Z,9.13
2018-01-04T18:11:34.867Z,7.80
2018-01-04T18:14:03.930Z,11.52
2018-01-04T18:16:33.858Z,10.93
2018-01-04T18:19:02.977Z,11.73
2018-01-04T18:21:32.029Z,12.73
2018-01-04T18:24:01.831Z,11.10
2018-01-04T18:26:31.651Z,10.45
2018-01-04T18:29:01.714Z,11.18
2018-01-04T18:31:31.627Z,10.15
2018-01-04T18:34:02.124Z,8.10
2018-01-04T18:36:31.236Z,13.23
2018-01-04T18:39:07.529Z,9.18
2018-01-04T18:41:43.918Z,9.95
2018-01-04T18:44:13.875Z,11.30
2018-01-04T18:46:45.117Z,13.93
2018-01-04T18:49:14.260Z,12.77
2018-01-04T18:51:43.344Z,11.75
2018-01-04T18:54:12.431Z,10.27
2018-01-04T18:56:45.389Z,15.63
2018-01-04T18:59:14.828Z,11.18
2018-01-04T19:01:49.517Z,12.27
2018-01-04T19:04:18.849Z,13.02
2018-01-04T19:06:49.460Z,10.38
2018-01-04T19:09:19.613Z,14.25
2018-01-04T19:11:48.924Z,11.98
2018-01-04T19:14:18.547Z,10.68
2018-01-04T19:16:48.044Z,10.23
2018-01-04T19:19:17.279Z,9.35
2018-01-04T19:21:47.228Z,8.77
2018-01-04T19:24:16.612Z,9.05
2018-01-04T19:26:45.699Z,9.00
2018-01-04T19:29:14.713Z,9.32
2018-01-04T19:31:43.833Z,13.02
2018-01-04T19:34:12.891Z,11.10
2018-01-04T19:36:42.735Z,10.00
2018-01-04T19:39:11.800Z,10.00
2018-01-04T19:41:42.101Z,13.35
2018-01-04T19:44:11.385Z,8.95
2018-01-04T19:46:40.464Z,9.07
2018-01-04T19:49:09.457Z,9.85
2018-01-04T19:51:38.685Z,10.98
2018-01-04T19:54:08.084Z,13.38
2018-01-04T19:56:37.852Z,11.20
2018-01-04T19:59:07.702Z,17.98
2018-01-04T20:01:37.625Z,11.68
2018-01-04T20:04:06.752Z,10.07
2018-01-04T20:06:41.360Z,10.85
2018-01-04T20:09:10.417Z,11.35
2018-01-04T20:11:39.679Z,15.95
2018-01-04T20:14:08.793Z,15.35
2018-01-04T20:16:37.874Z,14.20
2018-01-04T20:19:07.053Z,12.25
2018-01-04T20:21:36.129Z,17.25
2018-01-04T20:24:06.057Z,14.30
2018-01-04T20:26:35.100Z,12.55
2018-01-04T20:29:04.258Z,12.80
2018-01-04T20:31:33.306Z,9.98
2018-01-04T20:34:03.089Z,11.27
2018-01-04T20:36:32.240Z,13.50
2018-01-04T20:39:01.418Z,9.63
2018-01-04T20:41:31.403Z,10.68
2018-01-04T20:44:00.431Z,16.40
2018-01-04T20:46:30.313Z,14.75
2018-01-04T20:49:00.308Z,21.52
2018-01-04T20:51:29.492Z,13.62
2018-01-04T20:53:58.585Z,17.90
2018-01-04T20:56:29.395Z,12.77
2018-01-04T20:58:58.474Z,13.35
2018-01-04T21:01:28.492Z,20.88
2018-01-04T21:03:58.283Z,14.43
2018-01-04T21:06:28.179Z,16.02
2018-01-04T21:08:57.301Z,12.23
2018-01-04T21:11:26.458Z,13.30
2018-01-04T21:13:56.363Z,24.98
2018-01-04T21:16:25.501Z,15.35
2018-01-04T21:18:54.586Z,14.10
2018-01-04T21:21:24.303Z,16.25
2018-01-04T21:23:53.376Z,19.00
2018-01-04T21:26:22.817Z,20.17
2018-01-04T21:28:52.752Z,16.90
2018-01-04T21:31:22.613Z,21.35
2018-01-04T21:33:51.632Z,21.87
2018-01-04T21:36:20.628Z,20.60
2018-01-04T21:38:50.490Z,23.58
2018-01-04T21:41:25.180Z,19.17
2018-01-04T21:43:55.488Z,21.30
2018-01-04T21:46:25.601Z,27.58
2018-01-04T21:48:54.682Z,15.98
2018-01-04T21:51:23.742Z,21.12
2018-01-04T21:53:52.789Z,19.90
2018-01-04T21:56:21.832Z,18.75
2018-01-04T21:58:50.918Z,27.45
2018-01-04T22:01:20.099Z,15.68
2018-01-04T22:03:50.005Z,17.23
2018-01-04T22:06:21.147Z,17.05
2018-01-04T22:08:50.943Z,20.85
2018-01-04T22:11:19.938Z,19.70
2018-01-04T22:13:49.017Z,17.45
2018-01-04T22:16:18.171Z,27.02
2018-01-04T22:18:47.186Z,15.82
2018-01-04T22:21:16.215Z,16.90
2018-01-04T22:23:45.203Z,20.83
2018-01-04T22:26:14.346Z,16.75
2018-01-04T22:28:43.380Z,24.17
2018-01-04T22:31:12.375Z,10.88
2018-01-04T22:33:41.421Z,12.98
2018-01-04T22:36:10.468Z,19.30
2018-01-04T22:38:39.443Z,8.65
2018-01-04T22:41:08.471Z,18.50
2018-01-04T22:43:37.481Z,16.83
2018-01-04T22:46:07.288Z,16.00
2018-01-04T22:48:37.085Z,13.20
2018-01-04T22:51:06.168Z,11.98
2018-01-04T22:53:35.213Z,15.57
2018-01-04T22:56:04.388Z,11.85
2018-01-04T22:58:33.406Z,11.93
2018-01-04T23:01:02.451Z,17.70
2018-01-04T23:03:31.499Z,12.07
2018-01-04T23:06:01.089Z,8.98
2018-01-04T23:08:31.353Z,11.20
2018-01-04T23:11:00.340Z,9.77
2018-01-04T23:13:31.009Z,8.00
2018-01-04T23:15:59.992Z,9.38
2018-01-04T23:18:28.981Z,7.95
2018-01-04T23:20:57.950Z,13.43
2018-01-04T23:23:26.950Z,12.70
2018-01-04T23:25:55.950Z,10.05
2018-01-04T23:28:25.712Z,15.40
2018-01-04T23:30:55.468Z,12.85
2018-01-04T23:33:24.444Z,8.02
2018-01-04T23:35:53.456Z,13.60
2018-01-04T23:38:22.425Z,12.95
2018-01-04T23:40:51.426Z,10.90
2018-01-04T23:43:20.462Z,11.18
2018-01-04T23:45:49.414Z,11.10
2018-01-04T23:48:18.403Z,11.77
2018-01-04T23:50:47.368Z,10.77
2018-01-04T23:53:16.381Z,8.50
2018-01-04T23:55:45.345Z,9.68
2018-01-04T23:58:15.336Z,16.12
